Time;durP1;ratioP1;P1;durP2;ratioP2;P2;SDS_P1;SDS_P2;PMS_P1;PMS_P2;Temp;Humidity;BMP_temperature;BMP_pressure;BME280_temperature;BME280_humidity;BME280_pressure;Samples;Min_cycle;Max_cycle;Signal;HPM_P1;HPM_P2
2021/05/14 00:00:39;;;;;;;16.70;9.48;;;15.10;79.20;;;;;;5113935;28;20039;-67
2021/05/14 00:03:05;;;;;;;14.15;8.85;;;15.10;79.10;;;;;;5114828;28;20024;-68
2021/05/14 00:05:34;;;;;;;14.88;9.30;;;15.10;79.10;;;;;;5114517;28;20030;-68
2021/05/14 00:08:00;;;;;;;11.75;7.88;;;15.20;79.00;;;;;;5114835;28;20099;-68
2021/05/14 00:10:26;;;;;;;13.52;8.60;;;15.20;78.60;;;;;;5114069;28;20462;-75
2021/05/14 00:12:52;;;;;;;13.70;9.05;;;15.20;78.50;;;;;;5114823;28;20016;-68
2021/05/14 00:15:18;;;;;;;16.38;8.45;;;15.20;78.20;;;;;;5114869;28;20512;-67
2021/05/14 00:17:44;;;;;;;12.75;8.05;;;15.20;78.10;;;;;;5112558;28;20377;-68
2021/05/14 00:20:11;;;;;;;11.75;7.28;;;15.20;77.90;;;;;;5114649;28;20488;-68
2021/05/14 00:22:37;;;;;;;17.80;8.15;;;15.20;77.80;;;;;;5113642;28;20024;-67
2021/05/14 00:25:08;;;;;;;11.77;7.22;;;15.20;77.60;;;;;;5114759;28;20489;-67
2021/05/14 00:27:34;;;;;;;10.70;6.78;;;15.20;77.50;;;;;;5114416;27;20028;-67
2021/05/14 00:29:59;;;;;;;12.13;6.40;;;15.20;77.30;;;;;;5113326;28;20027;-70
2021/05/14 00:32:25;;;;;;;13.50;6.47;;;15.20;77.30;;;;;;5083829;28;20024;-68
2021/05/14 00:34:51;;;;;;;9.43;5.32;;;15.20;77.10;;;;;;5074467;28;20020;-68
2021/05/14 00:37:16;;;;;;;8.98;5.85;;;15.20;76.90;;;;;;5087174;28;20035;-68
2021/05/14 00:39:43;;;;;;;9.13;5.70;;;15.20;76.70;;;;;;5098749;28;20028;-68
2021/05/14 00:42:09;;;;;;;10.02;4.85;;;15.20;76.50;;;;;;5115563;27;20027;-68
2021/05/14 00:44:37;;;;;;;9.30;5.35;;;15.20;76.50;;;;;;5112796;28;20076;-68
2021/05/14 00:47:06;;;;;;;6.97;5.10;;;15.20;76.50;;;;;;5094660;28;20501;-67
2021/05/14 00:49:32;;;;;;;7.43;5.18;;;15.20;76.40;;;;;;5110412;28;20077;-68
2021/05/14 00:51:59;;;;;;;8.57;5.10;;;15.20;76.30;;;;;;5114240;28;20016;-68
2021/05/14 00:54:26;;;;;;;8.73;4.72;;;15.20;76.30;;;;;;5109777;28;20054;-75
2021/05/14 00:56:52;;;;;;;9.18;5.40;;;15.20;76.30;;;;;;5113493;28;20381;-67
2021/05/14 00:59:18;;;;;;;8.13;5.55;;;15.20;76.30;;;;;;5112633;28;20039;-67
2021/05/14 01:01:44;;;;;;;7.53;5.00;;;15.20;76.30;;;;;;5113871;28;20465;-67
2021/05/14 01:04:09;;;;;;;9.93;5.90;;;15.20;76.20;;;;;;5114101;28;20034;-66
2021/05/14 01:06:35;;;;;;;9.27;5.28;;;15.20;76.30;;;;;;5113581;28;20114;-68
2021/05/14 01:09:02;;;;;;;7.72;5.07;;;15.20;76.40;;;;;;5113374;28;20030;-68
2021/05/14 01:11:28;;;;;;;8.43;5.22;;;15.20;76.50;;;;;;5113561;28;20023;-68
2021/05/14 01:13:56;;;;;;;5.85;4.32;;;15.10;76.50;;;;;;5112735;28;20027;-68
2021/05/14 01:16:23;;;;;;;9.55;5.20;;;15.10;76.60;;;;;;5113813;28;20492;-67
2021/05/14 01:18:48;;;;;;;10.20;5.10;;;15.10;76.70;;;;;;5093565;27;20051;-68
2021/05/14 01:21:14;;;;;;;7.45;4.88;;;15.10;76.80;;;;;;5093213;28;20106;-68
2021/05/14 01:23:40;;;;;;;7.78;5.30;;;15.10;76.90;;;;;;5092949;28;20512;-68
2021/05/14 01:26:14;;;;;;;8.50;5.70;;;15.10;77.00;;;;;;5092745;28;20028;-68
2021/05/14 01:28:40;;;;;;;7.80;5.32;;;15.10;77.10;;;;;;5092460;28;20390;-68
2021/05/14 01:31:06;;;;;;;9.38;5.40;;;15.10;77.10;;;;;;5092970;28;20024;-68
2021/05/14 01:33:32;;;;;;;8.00;5.22;;;15.10;77.20;;;;;;5093117;28;20089;-68
2021/05/14 01:35:58;;;;;;;9.25;5.50;;;15.10;77.40;;;;;;5090433;28;20118;-68
2021/05/14 01:38:24;;;;;;;9.18;6.00;;;15.00;77.60;;;;;;5092972;28;20039;-68
2021/05/14 01:40:50;;;;;;;9.00;6.22;;;15.00;77.70;;;;;;5092309;28;20462;-68
2021/05/14 01:43:15;;;;;;;9.98;6.40;;;15.00;77.90;;;;;;5092739;28;20080;-68
2021/05/14 01:45:41;;;;;;;13.98;6.40;;;15.00;78.10;;;;;;5092683;28;20030;-68
2021/05/14 01:48:07;;;;;;;11.32;7.20;;;15.00;78.20;;;;;;5093012;28;20051;-68
2021/05/14 01:50:33;;;;;;;10.35;6.75;;;15.00;78.30;;;;;;5091149;28;20107;-69
2021/05/14 01:52:58;;;;;;;9.60;6.70;;;14.90;78.40;;;;;;5090974;28;20024;-68
2021/05/14 01:55:24;;;;;;;12.98;7.03;;;15.00;78.50;;;;;;5092795;28;20027;-68
2021/05/14 01:57:50;;;;;;;11.90;7.70;;;14.90;78.40;;;;;;5092266;28;20034;-68
2021/05/14 02:00:16;;;;;;;13.77;7.43;;;14.90;78.50;;;;;;5093011;28;20024;-68
2021/05/14 02:02:42;;;;;;;13.02;6.93;;;14.90;78.60;;;;;;5092065;28;20020;-68
2021/05/14 02:05:08;;;;;;;11.25;7.28;;;14.80;78.60;;;;;;5091964;28;20103;-68
2021/05/14 02:07:33;;;;;;;11.32;7.55;;;14.80;78.70;;;;;;5092708;28;20032;-68
2021/05/14 02:09:59;;;;;;;14.05;8.63;;;14.80;78.80;;;;;;5092319;28;20024;-70
2021/05/14 02:12:25;;;;;;;14.93;7.93;;;14.80;78.90;;;;;;5092255;28;20024;-76
2021/05/14 02:14:51;;;;;;;18.10;8.43;;;14.70;79.00;;;;;;5092410;28;20040;-68
2021/05/14 02:17:16;;;;;;;13.05;8.27;;;14.70;79.20;;;;;;5092618;28;20032;-68
2021/05/14 02:19:42;;;;;;;12.80;7.85;;;14.70;79.30;;;;;;5092436;28;20458;-68
2021/05/14 02:22:08;;;;;;;12.30;7.85;;;14.70;79.30;;;;;;5092839;28;20032;-68
2021/05/14 02:24:33;;;;;;;12.38;7.70;;;14.60;79.20;;;;;;5092757;28;20031;-69
2021/05/14 02:26:59;;;;;;;16.45;8.63;;;14.60;79.10;;;;;;5092241;28;20056;-69
2021/05/14 02:29:25;;;;;;;16.13;8.10;;;14.70;79.20;;;;;;5093457;28;20131;-68
2021/05/14 02:31:51;;;;;;;14.20;8.50;;;14.70;79.10;;;;;;5092801;28;20028;-68
2021/05/14 02:34:17;;;;;;;14.60;8.10;;;14.70;78.90;;;;;;5101567;28;20024;-68
2021/05/14 02:36:42;;;;;;;12.63;8.27;;;14.70;78.90;;;;;;5098497;28;20473;-71
2021/05/14 02:39:09;;;;;;;17.63;8.20;;;14.70;78.90;;;;;;5113557;28;20461;-68
2021/05/14 02:41:38;;;;;;;14.25;7.97;;;14.70;78.80;;;;;;5113714;28;20028;-68
2021/05/14 02:44:05;;;;;;;11.70;8.00;;;14.70;79.00;;;;;;5108500;28;20031;-68
2021/05/14 02:46:33;;;;;;;13.00;7.97;;;14.70;79.10;;;;;;5093496;28;20033;-68
2021/05/14 02:48:58;;;;;;;14.32;7.25;;;14.80;79.20;;;;;;5096150;28;20089;-68
2021/05/14 02:51:24;;;;;;;12.88;6.93;;;14.70;79.30;;;;;;5096992;28;20021;-68
2021/05/14 02:53:50;;;;;;;10.70;6.38;;;14.80;79.40;;;;;;5080496;28;20395;-68
2021/05/14 02:56:15;;;;;;;12.32;6.82;;;14.80;79.50;;;;;;5094072;28;20042;-66
2021/05/14 02:58:41;;;;;;;12.98;7.38;;;14.90;79.80;;;;;;5095617;28;20028;-67
2021/05/14 03:01:07;;;;;;;15.68;7.45;;;15.10;79.80;;;;;;5081953;28;20021;-67
2021/05/14 03:03:32;;;;;;;11.77;6.70;;;15.10;79.30;;;;;;5080066;28;20031;-67
2021/05/14 03:05:58;;;;;;;15.25;6.70;;;15.20;79.10;;;;;;5084092;28;20149;-68
2021/05/14 03:08:24;;;;;;;11.95;7.78;;;15.30;79.20;;;;;;5095007;28;20024;-67
2021/05/14 03:10:49;;;;;;;12.05;7.35;;;15.30;78.90;;;;;;5094519;28;20016;-67
2021/05/14 03:13:15;;;;;;;12.43;6.97;;;15.30;78.70;;;;;;5092475;28;20484;-67
2021/05/14 03:15:41;;;;;;;11.15;7.35;;;15.30;78.80;;;;;;5095204;28;20566;-68
2021/05/14 03:18:07;;;;;;;9.88;6.38;;;15.20;78.90;;;;;;5095111;28;20085;-67
2021/05/14 03:20:33;;;;;;;11.18;5.28;;;15.20;79.20;;;;;;5090934;28;20024;-67
2021/05/14 03:22:58;;;;;;;7.70;5.18;;;15.20;79.60;;;;;;5091188;28;20035;-68
2021/05/14 03:25:24;;;;;;;9.00;5.68;;;15.20;80.10;;;;;;5094949;28;20038;-69
2021/05/14 03:27:50;;;;;;;12.00;5.78;;;15.10;80.40;;;;;;5093691;28;20511;-67
2021/05/14 03:30:16;;;;;;;7.95;5.40;;;15.20;80.70;;;;;;5094803;28;20390;-67
2021/05/14 03:32:44;;;;;;;7.68;4.85;;;15.20;80.80;;;;;;5095152;28;20024;-68
2021/05/14 03:35:10;;;;;;;7.50;4.78;;;15.20;81.00;;;;;;5094695;28;20056;-68
2021/05/14 03:37:37;;;;;;;6.72;4.78;;;15.20;81.10;;;;;;5094841;28;20036;-68
2021/05/14 03:40:13;;;;;;;7.82;5.18;;;15.30;81.20;;;;;;5094593;28;20039;-68
2021/05/14 03:42:39;;;;;;;7.95;5.18;;;15.30;81.50;;;;;;5093457;28;20024;-68
2021/05/14 03:45:05;;;;;;;9.50;5.43;;;15.30;81.20;;;;;;5094782;28;20028;-69
2021/05/14 03:47:31;;;;;;;15.20;8.73;;;15.30;81.20;;;;;;5094361;28;20039;-69
2021/05/14 03:49:58;;;;;;;9.18;4.95;;;15.30;81.10;;;;;;5094705;28;20470;-69
2021/05/14 03:52:24;;;;;;;10.25;5.93;;;15.40;80.90;;;;;;5080185;28;20020;-69
2021/05/14 03:54:49;;;;;;;16.55;10.00;;;15.40;80.80;;;;;;5093866;28;20027;-69
2021/05/14 03:57:15;;;;;;;21.13;11.18;;;15.50;80.70;;;;;;5093065;28;20043;-69
2021/05/14 03:59:41;;;;;;;15.82;7.28;;;15.60;80.50;;;;;;5093000;28;20454;-69
2021/05/14 04:02:08;;;;;;;13.20;6.47;;;15.60;79.90;;;;;;5094108;28;20485;-69
2021/05/14 04:04:34;;;;;;;17.17;7.60;;;15.70;79.40;;;;;;5093418;28;20032;-71
2021/05/14 04:07:03;;;;;;;11.52;5.88;;;15.80;79.20;;;;;;5094216;28;20054;-69
2021/05/14 04:09:33;;;;;;;13.63;5.55;;;16.00;79.10;;;;;;5094083;28;20016;-69
2021/05/14 04:14:32;;;;;;;9.25;5.38;;;16.20;77.60;;;;;;5093367;28;20177;-69
2021/05/14 04:16:59;;;;;;;8.95;4.50;;;16.40;77.90;;;;;;5093145;28;20054;-72
2021/05/14 04:19:25;;;;;;;7.68;4.63;;;16.90;78.10;;;;;;5089463;28;20052;-70
2021/05/14 04:21:53;;;;;;;8.30;4.47;;;17.50;77.10;;;;;;5094466;28;20101;-69
2021/05/14 04:24:23;;;;;;;10.20;5.20;;;18.10;74.70;;;;;;5094397;28;20161;-75
2021/05/14 04:26:50;;;;;;;7.35;4.00;;;18.50;71.90;;;;;;5094323;28;20028;-69
2021/05/14 04:29:17;;;;;;;11.13;4.90;;;18.90;70.80;;;;;;5094309;28;20028;-69
2021/05/14 04:31:44;;;;;;;8.00;4.10;;;19.40;69.60;;;;;;5092596;28;20086;-74
2021/05/14 04:34:17;;;;;;;6.28;3.88;;;19.90;68.20;;;;;;5094471;28;20024;-69
2021/05/14 04:36:43;;;;;;;5.68;3.70;;;20.30;66.70;;;;;;5094271;28;20476;-72
2021/05/14 04:39:10;;;;;;;8.18;4.35;;;20.70;65.90;;;;;;5093155;28;20063;-70
2021/05/14 04:41:36;;;;;;;6.15;4.22;;;21.00;64.10;;;;;;5093263;28;20331;-69
2021/05/14 04:44:04;;;;;;;8.30;3.80;;;20.60;62.60;;;;;;5092736;28;20020;-69
2021/05/14 04:46:39;;;;;;;6.10;3.78;;;20.20;62.80;;;;;;5090651;28;20020;-70
2021/05/14 04:49:04;;;;;;;7.23;4.47;;;19.80;63.70;;;;;;5089098;28;20032;-70
2021/05/14 04:51:30;;;;;;;9.77;5.78;;;19.50;64.50;;;;;;5094837;28;20261;-70
2021/05/14 04:54:01;;;;;;;10.68;5.53;;;19.30;65.30;;;;;;5080021;28;20036;-68
2021/05/14 04:56:26;;;;;;;7.90;5.13;;;19.40;66.50;;;;;;5081701;28;20036;-76
2021/05/14 04:58:52;;;;;;;12.10;4.88;;;19.90;66.70;;;;;;5096678;28;20116;-75
2021/05/14 05:01:18;;;;;;;9.30;4.13;;;20.40;65.30;;;;;;5091660;28;20020;-74
2021/05/14 05:03:52;;;;;;;12.98;4.10;;;20.90;64.20;;;;;;5097739;28;20021;-72
2021/05/14 05:06:18;;;;;;;13.23;4.72;;;21.40;63.00;;;;;;5092342;28;20202;-74
2021/05/14 05:08:44;;;;;;;10.38;4.28;;;21.90;62.30;;;;;;5083360;28;20028;-70
2021/05/14 05:11:10;;;;;;;9.52;4.32;;;22.40;61.40;;;;;;5086909;28;20028;-68
2021/05/14 05:13:35;;;;;;;10.40;3.80;;;23.00;59.40;;;;;;5084493;28;20363;-71
2021/05/14 05:16:01;;;;;;;7.38;3.78;;;23.40;58.50;;;;;;5083058;28;20053;-73
2021/05/14 05:18:27;;;;;;;8.48;3.80;;;23.70;57.70;;;;;;5091112;28;20031;-72
2021/05/14 05:20:53;;;;;;;8.30;3.75;;;24.10;57.00;;;;;;5089850;28;20028;-72
2021/05/14 05:23:19;;;;;;;7.75;3.88;;;24.50;56.00;;;;;;5089860;28;20046;-73
2021/05/14 05:25:45;;;;;;;6.00;3.47;;;24.90;54.80;;;;;;5080303;28;20463;-73
2021/05/14 05:28:11;;;;;;;8.82;4.18;;;24.80;53.50;;;;;;5089065;28;20050;-72
2021/05/14 05:30:36;;;;;;;8.15;3.78;;;24.70;53.30;;;;;;5091646;28;20077;-72
2021/05/14 05:33:02;;;;;;;10.80;4.80;;;24.50;53.00;;;;;;5091016;28;20024;-74
2021/05/14 05:35:28;;;;;;;16.15;4.93;;;24.10;52.80;;;;;;5090753;28;20371;-72
2021/05/14 05:37:54;;;;;;;10.85;4.75;;;23.40;53.20;;;;;;5089902;28;20040;-72
2021/05/14 05:40:20;;;;;;;12.43;5.40;;;22.70;54.40;;;;;;5090692;28;20457;-72
2021/05/14 05:42:46;;;;;;;12.25;5.45;;;22.20;55.70;;;;;;5091451;28;20029;-72
2021/05/14 05:45:13;;;;;;;16.20;5.60;;;21.80;56.80;;;;;;5090878;28;20051;-77
2021/05/14 05:47:39;;;;;;;8.85;4.95;;;21.50;57.60;;;;;;5083674;28;20468;-72
2021/05/14 05:50:06;;;;;;;10.13;5.40;;;21.20;58.60;;;;;;5092808;28;20034;-72
2021/05/14 05:52:32;;;;;;;11.30;6.72;;;21.00;59.50;;;;;;5091417;28;20021;-71
2021/05/14 05:54:58;;;;;;;16.92;7.90;;;20.90;60.40;;;;;;5081656;28;20479;-71
2021/05/14 05:57:24;;;;;;;13.88;9.75;;;20.90;60.70;;;;;;5086755;28;20043;-73
2021/05/14 05:59:49;;;;;;;25.50;22.85;;;20.90;61.00;;;;;;5090390;28;20073;-72
2021/05/14 06:02:15;;;;;;;18.33;8.32;;;21.10;61.20;;;;;;5089839;28;20031;-72
2021/05/14 06:04:41;;;;;;;17.40;6.35;;;21.30;61.10;;;;;;5083820;28;20032;-73
2021/05/14 06:07:06;;;;;;;16.38;6.75;;;21.60;61.10;;;;;;5082055;28;20070;-75
2021/05/14 06:09:32;;;;;;;16.48;6.03;;;22.00;60.50;;;;;;5089926;28;20032;-75
2021/05/14 06:11:58;;;;;;;15.30;6.60;;;22.20;59.60;;;;;;5091903;28;20028;-75
2021/05/14 06:14:24;;;;;;;15.43;6.03;;;22.10;59.20;;;;;;5091918;28;20043;-72
2021/05/14 06:16:50;;;;;;;13.57;5.45;;;21.90;59.10;;;;;;5087619;28;20040;-75
2021/05/14 06:22:11;;;;;;;17.95;6.20;;;21.50;59.30;;;;;;5077496;28;20040;-73
2021/05/14 06:24:36;;;;;;;17.63;7.05;;;21.00;59.80;;;;;;5095435;28;20352;-72
2021/05/14 06:27:02;;;;;;;11.88;6.35;;;20.70;60.80;;;;;;5093021;28;20137;-71
2021/05/14 06:29:28;;;;;;;15.18;6.13;;;20.20;61.70;;;;;;5085717;28;20463;-72
2021/05/14 06:31:53;;;;;;;13.00;5.60;;;20.00;62.60;;;;;;5080051;28;20097;-72
2021/05/14 06:34:19;;;;;;;17.55;7.20;;;19.80;63.40;;;;;;5107141;28;20058;-71
2021/05/14 06:36:45;;;;;;;13.30;7.00;;;19.70;64.10;;;;;;5098965;28;20039;-72
2021/05/14 06:39:10;;;;;;;10.55;6.38;;;19.80;65.00;;;;;;5094948;28;20067;-72
2021/05/14 06:41:36;;;;;;;11.18;7.00;;;20.40;65.50;;;;;;5081894;28;20059;-73
2021/05/14 06:44:01;;;;;;;13.80;6.63;;;21.00;64.30;;;;;;5081562;28;20065;-72
2021/05/14 06:46:27;;;;;;;10.05;6.10;;;21.40;62.80;;;;;;5093087;28;20032;-75
2021/05/14 06:48:53;;;;;;;13.88;6.75;;;21.70;62.00;;;;;;5089303;28;20134;-72
2021/05/14 06:51:18;;;;;;;18.98;6.60;;;21.90;61.10;;;;;;5096539;28;20020;-72
2021/05/14 06:53:46;;;;;;;12.43;6.00;;;22.00;60.80;;;;;;5088288;28;20020;-74
2021/05/14 06:56:12;;;;;;;10.40;5.10;;;22.30;60.60;;;;;;5097943;28;20052;-72
2021/05/14 06:58:38;;;;;;;10.27;6.20;;;22.70;60.20;;;;;;5081450;28;20032;-73
2021/05/14 07:01:04;;;;;;;14.52;7.60;;;23.10;59.10;;;;;;5091080;28;20027;-72
2021/05/14 07:03:29;;;;;;;17.58;8.32;;;23.50;58.30;;;;;;5091763;28;20065;-72
2021/05/14 07:05:55;;;;;;;11.70;7.60;;;23.90;57.70;;;;;;5090593;28;20051;-73
2021/05/14 07:08:21;;;;;;;13.05;7.70;;;24.40;56.80;;;;;;5088442;28;20466;-72
2021/05/14 07:10:47;;;;;;;10.52;6.10;;;24.70;55.90;;;;;;5086675;28;20025;-73
2021/05/14 07:13:12;;;;;;;15.63;8.38;;;25.10;55.60;;;;;;5088093;28;20016;-72
2021/05/14 07:15:38;;;;;;;13.13;6.97;;;25.60;54.40;;;;;;5087775;28;20071;-73
2021/05/14 07:18:04;;;;;;;15.38;7.47;;;25.80;53.10;;;;;;5095251;28;20101;-72
2021/05/14 07:20:32;;;;;;;18.00;8.05;;;25.70;52.30;;;;;;5091031;28;20036;-72
2021/05/14 07:22:58;;;;;;;12.77;8.18;;;25.30;52.00;;;;;;5090556;28;20462;-72
2021/05/14 07:25:24;;;;;;;11.25;6.93;;;24.90;52.30;;;;;;5087888;28;20027;-72
2021/05/14 07:27:50;;;;;;;14.23;7.15;;;24.50;52.50;;;;;;5094034;28;20557;-72
2021/05/14 07:30:16;;;;;;;20.77;7.80;;;24.10;52.80;;;;;;5093823;28;20106;-72
2021/05/14 07:32:42;;;;;;;18.88;7.00;;;23.70;53.50;;;;;;5093791;28;20028;-72
2021/05/14 07:35:08;;;;;;;18.63;7.22;;;23.40;54.40;;;;;;5094852;28;20111;-72
2021/05/14 07:37:34;;;;;;;15.93;7.65;;;23.20;55.20;;;;;;5095006;28;20020;-72
2021/05/14 07:39:59;;;;;;;24.65;7.80;;;23.00;55.50;;;;;;5090506;28;20532;-72
2021/05/14 07:42:25;;;;;;;26.50;9.70;;;22.80;56.00;;;;;;5092457;28;20111;-79
2021/05/14 07:44:51;;;;;;;29.20;9.45;;;22.80;56.20;;;;;;5093493;28;20024;-72
2021/05/14 07:47:17;;;;;;;22.77;7.70;;;23.00;57.60;;;;;;5090226;28;20027;-73
2021/05/14 07:49:42;;;;;;;18.60;7.15;;;23.60;57.40;;;;;;5090988;28;20028;-73
2021/05/14 07:52:09;;;;;;;16.65;6.28;;;24.60;56.20;;;;;;5080811;28;20028;-73
2021/05/14 07:54:35;;;;;;;21.05;7.65;;;25.50;54.30;;;;;;5094445;28;20020;-73
2021/05/14 07:57:01;;;;;;;20.77;7.15;;;26.30;53.10;;;;;;5077480;28;20108;-73
2021/05/14 07:59:27;;;;;;;16.45;6.40;;;27.10;51.60;;;;;;5093490;28;20031;-73
2021/05/14 08:01:53;;;;;;;13.05;7.95;;;27.70;50.20;;;;;;5090589;28;20073;-73
2021/05/14 08:04:18;;;;;;;13.25;7.47;;;28.10;50.00;;;;;;5085362;28;20024;-73
2021/05/14 08:06:44;;;;;;;28.23;24.60;;;28.30;48.50;;;;;;5087566;28;20131;-74
2021/05/14 08:09:12;;;;;;;30.75;17.73;;;28.60;48.00;;;;;;5087032;28;20024;-73
2021/05/14 08:11:38;;;;;;;31.38;27.13;;;29.00;47.50;;;;;;5086062;28;20031;-74
2021/05/14 08:14:04;;;;;;;16.75;8.90;;;29.40;46.80;;;;;;5094615;28;20474;-73
2021/05/14 08:16:29;;;;;;;17.77;7.63;;;29.90;46.00;;;;;;5094526;28;20352;-74
2021/05/14 08:18:56;;;;;;;12.30;8.30;;;30.30;45.20;;;;;;5087184;28;20123;-73
2021/05/14 08:21:22;;;;;;;14.48;8.00;;;30.70;44.60;;;;;;5073227;28;20110;-73
2021/05/14 08:23:47;;;;;;;16.20;12.15;;;31.10;44.20;;;;;;5073379;28;20029;-73
2021/05/14 08:26:13;;;;;;;21.63;19.20;;;31.60;43.30;;;;;;5090425;28;20039;-74
2021/05/14 08:28:40;;;;;;;21.75;17.05;;;31.90;43.80;;;;;;5095157;28;20051;-76
2021/05/14 08:31:06;;;;;;;16.70;6.72;;;32.00;43.20;;;;;;5093527;28;20024;-74
2021/05/14 08:33:31;;;;;;;11.23;5.95;;;32.30;41.50;;;;;;5092740;28;20024;-74
2021/05/14 08:35:57;;;;;;;10.20;6.53;;;32.10;40.40;;;;;;5096177;28;20032;-73
2021/05/14 08:38:25;;;;;;;13.38;8.50;;;31.60;40.40;;;;;;5096045;28;20051;-73
2021/05/14 08:40:51;;;;;;;11.50;6.00;;;31.10;40.50;;;;;;5084042;28;20024;-74
2021/05/14 08:43:16;;;;;;;17.35;8.45;;;30.20;40.90;;;;;;5090197;28;20029;-72
2021/05/14 08:45:43;;;;;;;15.77;9.48;;;29.70;41.90;;;;;;5105829;28;20020;-73
2021/05/14 08:48:13;;;;;;;20.48;8.60;;;29.50;42.30;;;;;;5089768;28;20038;-73
2021/05/14 08:50:40;;;;;;;23.25;8.13;;;29.10;42.90;;;;;;5080771;28;20024;-73
2021/05/14 08:53:07;;;;;;;14.18;6.80;;;29.00;44.90;;;;;;5088558;28;20016;-73
2021/05/14 08:55:32;;;;;;;15.02;7.63;;;29.40;45.10;;;;;;5089058;28;20073;-73
2021/05/14 08:57:59;;;;;;;13.80;7.50;;;29.40;44.20;;;;;;5093448;28;20374;-73
2021/05/14 09:00:26;;;;;;;13.63;9.23;;;29.40;44.50;;;;;;5088957;28;20032;-77
2021/05/14 09:02:53;;;;;;;13.48;8.55;;;29.60;44.70;;;;;;5084449;28;20020;-73
2021/05/14 09:05:20;;;;;;;16.60;7.70;;;30.00;44.70;;;;;;5086640;28;20055;-72
2021/05/14 09:07:45;;;;;;;14.43;7.40;;;30.10;43.80;;;;;;5082411;28;20073;-72
2021/05/14 09:10:12;;;;;;;18.15;8.10;;;29.60;43.20;;;;;;5088689;28;20020;-72
2021/05/14 09:12:39;;;;;;;18.77;12.32;;;28.90;43.00;;;;;;5088593;28;20118;-72
2021/05/14 09:15:35;;;;;;;24.35;21.83;;;28.50;44.00;;;;;;5082913;28;20048;-73
2021/05/14 09:18:33;;;;;;;14.35;11.70;;;28.70;45.20;;;;;;5084561;28;20085;-72
2021/05/14 09:21:01;;;;;;;18.27;12.40;;;29.40;44.60;;;;;;5049750;28;20032;-73
2021/05/14 09:23:34;;;;;;;22.48;14.50;;;29.70;45.20;;;;;;5090130;28;20398;-73
2021/05/14 09:26:02;;;;;;;18.80;13.52;;;30.00;44.50;;;;;;5082454;28;20108;-72
2021/05/14 09:28:31;;;;;;;14.05;6.90;;;30.00;43.50;;;;;;5088057;28;20032;-73
2021/05/14 09:31:23;;;;;;;9.95;5.38;;;30.20;43.10;;;;;;5093382;28;20031;-73
2021/05/14 09:33:53;;;;;;;11.75;5.15;;;30.50;42.60;;;;;;5092863;28;20024;-73
2021/05/14 09:36:23;;;;;;;14.45;5.70;;;30.80;42.00;;;;;;5093465;28;20120;-73
2021/05/14 09:38:51;;;;;;;24.67;6.85;;;30.90;41.00;;;;;;5108434;28;20446;-73
2021/05/14 09:41:32;;;;;;;15.77;5.45;;;30.90;41.10;;;;;;5092266;28;20031;-73
2021/05/14 09:44:02;;;;;;;10.15;5.55;;;31.00;41.40;;;;;;5093136;28;20024;-73
2021/05/14 09:46:39;;;;;;;15.38;4.53;;;31.10;41.00;;;;;;5108350;28;20032;-73
2021/05/14 09:49:14;;;;;;;7.20;4.38;;;31.40;40.40;;;;;;5092854;28;20027;-73
2021/05/14 09:52:06;;;;;;;13.27;4.20;;;31.60;39.70;;;;;;5091885;28;20469;-73
2021/05/14 09:54:37;;;;;;;10.35;5.30;;;31.20;39.40;;;;;;5091391;28;20107;-73
2021/05/14 09:58:09;;;;;;;20.92;5.60;;;31.10;39.50;;;;;;5095236;28;20046;-73
2021/05/14 10:00:09;;;;;;;18.17;7.65;;;31.10;40.50;;;;;;5082250;28;20082;-73
2021/05/14 10:02:40;;;;;;;14.63;6.72;;;31.10;40.30;;;;;;5095991;28;20454;-73
2021/05/14 10:05:08;;;;;;;12.50;6.22;;;31.30;40.20;;;;;;5095782;28;20028;-73
2021/05/14 10:07:36;;;;;;;16.08;4.80;;;31.50;40.10;;;;;;5097279;28;20031;-73
2021/05/14 10:10:08;;;;;;;16.13;6.28;;;31.60;40.10;;;;;;5087918;28;20021;-73
2021/05/14 10:12:35;;;;;;;15.63;5.63;;;31.80;39.50;;;;;;5092382;28;20066;-73
2021/05/14 10:15:02;;;;;;;11.73;4.63;;;32.10;39.60;;;;;;5088581;28;20109;-72
2021/05/14 10:17:29;;;;;;;14.48;5.10;;;32.20;39.60;;;;;;5091767;28;20028;-72
2021/05/14 10:19:56;;;;;;;15.60;5.60;;;32.40;39.20;;;;;;5097040;28;20377;-73
2021/05/14 10:22:28;;;;;;;14.73;5.93;;;32.40;38.90;;;;;;5099881;28;20024;-72
2021/05/14 10:24:57;;;;;;;10.07;4.90;;;32.40;38.80;;;;;;5097317;28;20450;-72
2021/05/14 10:27:24;;;;;;;13.45;5.40;;;32.50;39.10;;;;;;5096966;28;20024;-72
2021/05/14 10:29:53;;;;;;;11.82;5.60;;;32.20;39.40;;;;;;5097570;28;20031;-72
2021/05/14 10:32:43;;;;;;;13.65;7.68;;;31.50;38.70;;;;;;5096602;28;20110;-72
2021/05/14 10:35:14;;;;;;;14.45;5.90;;;31.00;39.10;;;;;;5103125;28;20028;-72
2021/05/14 10:37:51;;;;;;;13.10;5.57;;;30.70;39.40;;;;;;5118077;28;20031;-73
2021/05/14 10:40:30;;;;;;;18.67;10.80;;;30.40;40.00;;;;;;5097339;28;20078;-72
2021/05/14 10:43:01;;;;;;;16.52;10.35;;;30.20;40.20;;;;;;5097768;28;20106;-72
2021/05/14 10:45:32;;;;;;;15.75;9.43;;;30.00;40.80;;;;;;5097228;28;20110;-72
2021/05/14 10:47:59;;;;;;;23.83;11.90;;;29.60;41.00;;;;;;5095554;28;20028;-72
2021/05/14 10:50:37;;;;;;;15.90;7.35;;;29.30;41.80;;;;;;5095611;28;20024;-78
2021/05/14 10:53:27;;;;;;;15.88;6.65;;;29.10;42.20;;;;;;5094810;28;20035;-73
2021/05/14 10:55:54;;;;;;;9.95;4.97;;;28.80;42.00;;;;;;5095698;28;20064;-72
2021/05/14 10:58:43;;;;;;;11.82;4.72;;;28.40;42.30;;;;;;5094778;28;20035;-72
2021/05/14 11:01:26;;;;;;;16.27;5.35;;;28.60;43.40;;;;;;5095565;28;20405;-72
2021/05/14 11:03:51;;;;;;;16.40;8.85;;;29.30;42.90;;;;;;5096064;28;20026;-72
2021/05/14 11:06:19;;;;;;;14.55;7.47;;;29.90;42.10;;;;;;5094232;28;20111;-71
2021/05/14 11:09:10;;;;;;;25.85;10.00;;;30.40;42.10;;;;;;5094147;28;20452;-71
2021/05/14 11:12:06;;;;;;;17.38;8.60;;;30.70;41.40;;;;;;5095770;28;20025;-71
2021/05/14 11:14:45;;;;;;;15.07;7.00;;;30.60;40.90;;;;;;5107734;28;20067;-71
2021/05/14 11:17:14;;;;;;;14.48;6.22;;;30.20;41.30;;;;;;5095644;28;20028;-71
2021/05/14 11:19:51;;;;;;;16.25;6.72;;;29.70;41.30;;;;;;5093995;28;20028;-71
2021/05/14 11:22:23;;;;;;;15.18;6.20;;;29.10;42.00;;;;;;5095355;28;20024;-71
2021/05/14 11:25:13;;;;;;;11.60;5.95;;;28.80;42.40;;;;;;5094838;28;20031;-71
2021/05/14 11:27:38;;;;;;;19.15;12.32;;;28.50;42.00;;;;;;5110792;28;20034;-72
2021/05/14 11:30:08;;;;;;;18.88;12.10;;;28.10;43.00;;;;;;5095363;28;20028;-71
2021/05/14 11:32:39;;;;;;;16.80;4.65;;;27.80;43.30;;;;;;5091386;28;20023;-72
2021/05/14 11:35:15;;;;;;;11.45;3.60;;;27.80;42.90;;;;;;5091081;28;20063;-72
2021/05/14 11:37:41;;;;;;;15.27;4.78;;;27.90;43.00;;;;;;5086398;28;20044;-72
2021/05/14 11:40:11;;;;;;;13.32;5.50;;;28.00;43.20;;;;;;5090310;28;20528;-80
2021/05/14 11:42:44;;;;;;;7.57;2.97;;;28.10;42.00;;;;;;5086314;28;20020;-71
2021/05/14 11:45:37;;;;;;;10.93;3.35;;;27.90;41.10;;;;;;5093831;28;20067;-72
2021/05/14 11:48:28;;;;;;;12.15;4.32;;;27.60;41.60;;;;;;5103820;28;20068;-72
2021/05/14 11:50:57;;;;;;;15.55;6.63;;;27.20;42.00;;;;;;5093707;28;20024;-71
2021/05/14 11:53:25;;;;;;;8.02;3.17;;;26.80;42.60;;;;;;5083114;28;20025;-72
2021/05/14 11:55:52;;;;;;;10.63;3.50;;;26.50;42.70;;;;;;5092421;28;20079;-71
2021/05/14 11:58:18;;;;;;;11.30;3.80;;;26.20;43.50;;;;;;5086338;28;20031;-71
2021/05/14 12:00:56;;;;;;;6.60;3.30;;;26.00;44.00;;;;;;5087323;28;20439;-71
2021/05/14 12:03:26;;;;;;;11.52;4.18;;;25.90;44.00;;;;;;5086569;28;20031;-71
2021/05/14 12:05:52;;;;;;;20.77;9.35;;;25.70;44.10;;;;;;5093604;28;20058;-71
2021/05/14 12:08:28;;;;;;;14.25;5.32;;;25.50;44.50;;;;;;5094555;28;20040;-71
2021/05/14 12:11:03;;;;;;;17.77;5.53;;;25.40;45.30;;;;;;5091627;28;20527;-71
2021/05/14 12:13:30;;;;;;;;;;;25.50;45.40;;;;;;5095218;28;20016;-71
2021/05/14 12:16:03;;;;;;;7.75;3.35;;;25.50;44.60;;;;;;5093186;28;19916;-71
2021/05/14 12:18:31;;;;;;;6.38;3.55;;;25.30;44.40;;;;;;5091920;28;20478;-72
2021/05/14 12:20:59;;;;;;;7.38;3.38;;;25.10;44.40;;;;;;5080408;28;20024;-72
2021/05/14 12:23:25;;;;;;;10.40;4.35;;;25.10;44.50;;;;;;5095676;28;20023;-71
2021/05/14 12:26:00;;;;;;;7.82;4.03;;;25.20;44.90;;;;;;5102749;28;20457;-71
2021/05/14 12:28:41;;;;;;;13.20;3.13;;;25.40;44.60;;;;;;5098697;28;20036;-76
2021/05/14 12:31:13;;;;;;;4.93;2.05;;;25.40;44.40;;;;;;5095611;28;20073;-71
2021/05/14 12:33:48;;;;;;;6.75;2.55;;;25.50;43.80;;;;;;5099989;28;20030;-71
2021/05/14 12:36:21;;;;;;;10.68;5.13;;;25.50;44.00;;;;;;5102042;28;20073;-71
2021/05/14 12:38:49;;;;;;;5.55;2.47;;;25.60;43.80;;;;;;5097074;28;20039;-71
2021/05/14 12:41:24;;;;;;;12.00;4.15;;;25.50;43.40;;;;;;5097380;28;20481;-71
2021/05/14 12:44:05;;;;;;;11.52;3.28;;;25.40;43.60;;;;;;5093570;28;20031;-71
2021/05/14 12:46:31;;;;;;;17.48;9.50;;;25.30;43.60;;;;;;5109422;28;20474;-72
2021/05/14 12:49:13;;;;;;;4.97;3.28;;;25.20;43.60;;;;;;5093565;28;20067;-71